createdAt,value
2022-08-24T00:00:09.448Z,7
2022-08-24T00:05:12.762Z,7
2022-08-24T00:10:09.455Z,7
2022-08-24T00:15:08.886Z,6
2022-08-24T00:20:09.507Z,5
2022-08-24T00:25:09.520Z,5
2022-08-24T00:30:08.898Z,6
2022-08-24T00:35:08.931Z,6
2022-08-24T00:40:09.654Z,5
2022-08-24T00:45:09.538Z,6
2022-08-24T00:50:09.587Z,6
2022-08-24T00:55:09.575Z,5
2022-08-24T01:00:09.605Z,6
2022-08-24T01:05:09.606Z,6
2022-08-24T01:10:09.604Z,5
2022-08-24T01:15:09.608Z,6
2022-08-24T01:20:09.622Z,5
2022-08-24T01:25:09.866Z,5
2022-08-24T01:30:09.047Z,6
2022-08-24T01:35:09.021Z,5
2022-08-24T01:40:09.693Z,7
2022-08-24T01:45:09.708Z,6
2022-08-24T01:50:09.737Z,6
2022-08-24T01:55:09.682Z,8
2022-08-24T02:00:09.684Z,9
2022-08-24T02:05:09.740Z,10
2022-08-24T02:10:13.197Z,10
2022-08-24T02:15:09.592Z,10
2022-08-24T02:20:09.634Z,9
2022-08-24T02:25:09.636Z,8
2022-08-24T02:30:09.050Z,8
2022-08-24T02:35:09.034Z,9
2022-08-24T02:40:09.676Z,9
2022-08-24T02:45:09.670Z,9
2022-08-24T02:50:09.674Z,9
2022-08-24T02:55:09.656Z,10
2022-08-24T03:00:10.473Z,9
2022-08-24T03:05:09.808Z,10
2022-08-24T03:10:09.720Z,10
2022-08-24T03:15:09.106Z,10
2022-08-24T03:20:09.760Z,12
2022-08-24T03:25:09.159Z,10
2022-08-24T03:30:09.144Z,11
2022-08-24T03:35:09.154Z,10
2022-08-24T03:40:10.571Z,9
2022-08-24T03:45:09.765Z,10
2022-08-24T03:50:09.188Z,10
2022-08-24T03:55:09.983Z,10
2022-08-24T04:00:09.859Z,10
2022-08-24T04:05:09.820Z,9
2022-08-24T04:10:09.804Z,9
2022-08-24T04:15:09.817Z,9
2022-08-24T04:20:09.817Z,10
2022-08-24T04:25:09.991Z,9
2022-08-24T04:30:09.251Z,9
2022-08-24T04:35:09.265Z,10
2022-08-24T04:40:09.337Z,10
2022-08-24T04:45:09.886Z,10
2022-08-24T04:50:09.341Z,11
2022-08-24T04:55:09.892Z,10
2022-08-24T05:00:09.296Z,11
2022-08-24T05:05:09.913Z,10
2022-08-24T05:10:09.349Z,13
2022-08-24T05:15:09.350Z,9
2022-08-24T05:20:09.382Z,10
2022-08-24T05:25:09.955Z,10
2022-08-24T05:30:09.393Z,9
2022-08-24T05:35:09.412Z,14
2022-08-24T05:40:10.032Z,13
2022-08-24T05:45:09.999Z,10
2022-08-24T05:50:10.004Z,11
2022-08-24T05:55:10.036Z,11
2022-08-24T06:00:10.132Z,23
2022-08-24T06:05:10.049Z,9
2022-08-24T06:10:33.185Z,13
2022-08-24T06:15:09.497Z,9
2022-08-24T06:20:10.320Z,9
2022-08-24T06:25:10.103Z,11
2022-08-24T06:30:09.665Z,14
2022-08-24T06:35:11.187Z,10
2022-08-24T06:40:10.137Z,10
2022-08-24T06:45:09.499Z,10
2022-08-24T06:50:09.520Z,13
2022-08-24T06:55:10.133Z,9
2022-08-24T07:00:10.133Z,9
2022-08-24T07:05:10.258Z,8
2022-08-24T07:10:10.258Z,9
2022-08-24T07:15:11.473Z,10
2022-08-24T07:20:10.342Z,8
2022-08-24T07:25:10.345Z,10
2022-08-24T07:30:26.230Z,8
2022-08-24T07:35:09.736Z,8
2022-08-24T07:40:10.396Z,10
2022-08-24T07:45:10.451Z,8
2022-08-24T07:50:09.812Z,8
2022-08-24T07:55:10.433Z,7
2022-08-24T08:00:10.430Z,10
2022-08-24T08:05:10.403Z,8
2022-08-24T08:10:10.423Z,8
2022-08-24T08:15:09.834Z,6
2022-08-24T08:20:10.407Z,8
2022-08-24T08:25:10.399Z,6
2022-08-24T08:30:09.748Z,8
2022-08-24T08:35:09.860Z,8
2022-08-24T08:40:10.445Z,8
2022-08-24T08:45:10.440Z,6
2022-08-24T08:50:42.935Z,10
2022-08-24T08:55:10.381Z,7
2022-08-24T09:00:09.782Z,5
2022-08-24T09:05:09.794Z,6
2022-08-24T09:10:09.801Z,5
2022-08-24T09:15:12.840Z,7
2022-08-24T09:20:09.876Z,6
2022-08-24T09:25:10.627Z,8
2022-08-24T09:30:09.819Z,7
2022-08-24T09:35:09.831Z,6
2022-08-24T09:40:09.940Z,5
2022-08-24T09:45:09.892Z,5
2022-08-24T09:50:10.454Z,6
2022-08-24T09:55:10.473Z,7
2022-08-24T10:00:11.714Z,5
2022-08-24T10:05:10.027Z,5
2022-08-24T10:10:10.606Z,4
2022-08-24T10:15:10.527Z,10
2022-08-24T10:20:10.695Z,6
2022-08-24T10:25:10.537Z,6
2022-08-24T10:30:09.963Z,5
2022-08-24T10:35:09.935Z,5
2022-08-24T10:40:10.586Z,5
2022-08-24T10:45:10.599Z,6
2022-08-24T10:50:10.733Z,6
2022-08-24T10:55:10.025Z,6
2022-08-24T11:00:10.031Z,5
2022-08-24T11:05:10.632Z,6
2022-08-24T11:10:10.039Z,7
2022-08-24T11:15:10.627Z,5
2022-08-24T11:20:10.648Z,6
2022-08-24T11:25:10.080Z,6
2022-08-24T11:30:10.069Z,5
2022-08-24T11:35:10.077Z,7
2022-08-24T11:40:10.838Z,5
2022-08-24T11:45:10.759Z,6
2022-08-24T11:50:10.110Z,4
2022-08-24T11:55:10.708Z,11
2022-08-24T12:00:10.862Z,5
2022-08-24T12:05:10.124Z,6
2022-08-24T12:10:10.213Z,5
2022-08-24T12:15:10.207Z,5
2022-08-24T12:20:10.933Z,5
2022-08-24T12:25:10.798Z,5
2022-08-24T12:30:10.353Z,7
2022-08-24T12:35:10.190Z,6
2022-08-24T12:40:10.715Z,4
2022-08-24T12:45:10.842Z,4
2022-08-24T12:50:10.246Z,5
2022-08-24T12:55:15.136Z,4
2022-08-24T13:00:16.261Z,4
2022-08-24T13:05:10.469Z,4
2022-08-24T13:10:10.280Z,10
2022-08-24T13:15:12.742Z,5
2022-08-24T13:20:15.720Z,7
2022-08-24T13:25:10.325Z,3
2022-08-24T13:30:10.893Z,4
2022-08-24T13:35:10.438Z,4
2022-08-24T13:40:10.432Z,5
2022-08-24T13:45:12.372Z,4
2022-08-24T13:50:31.549Z,7
2022-08-24T13:55:10.470Z,3
2022-08-24T14:00:11.051Z,5
2022-08-24T14:05:11.142Z,10
2022-08-24T14:10:11.098Z,7
2022-08-24T14:15:11.102Z,15
2022-08-24T14:20:11.149Z,9
2022-08-24T14:25:11.148Z,15
2022-08-24T14:30:11.206Z,4
2022-08-24T14:35:11.411Z,3
2022-08-24T14:40:10.597Z,4
2022-08-24T14:45:10.570Z,3
2022-08-24T14:50:13.014Z,3
2022-08-24T14:55:10.540Z,4
2022-08-24T15:00:10.474Z,3
2022-08-24T15:06:09.788Z,4
2022-08-24T15:10:28.092Z,5
2022-08-24T15:15:11.275Z,2
2022-08-24T15:20:11.242Z,7
2022-08-24T15:25:10.650Z,3
2022-08-24T15:30:11.283Z,3
2022-08-24T15:35:11.294Z,3
2022-08-24T15:40:14.481Z,3
2022-08-24T15:45:10.678Z,3
2022-08-24T15:50:11.392Z,3
2022-08-24T15:55:11.531Z,3
2022-08-24T16:00:11.284Z,3
2022-08-24T16:05:13.081Z,3
2022-08-24T16:10:11.384Z,4
2022-08-24T16:15:11.230Z,3
2022-08-24T16:20:11.258Z,3
2022-08-24T16:25:10.665Z,4
2022-08-24T16:30:10.652Z,3
2022-08-24T16:35:10.674Z,3
2022-08-24T16:40:10.700Z,3
2022-08-24T16:45:10.669Z,3
2022-08-24T16:50:11.370Z,3
2022-08-24T16:55:11.304Z,3
2022-08-24T17:00:11.448Z,3
2022-08-24T17:05:11.440Z,3
2022-08-24T17:10:11.434Z,3
2022-08-24T17:15:11.443Z,3
2022-08-24T17:20:11.457Z,3
2022-08-24T17:25:11.633Z,4
2022-08-24T17:30:11.538Z,3
2022-08-24T17:35:11.538Z,3
2022-08-24T17:40:10.939Z,3
2022-08-24T17:45:10.899Z,3
2022-08-24T17:50:11.501Z,3
2022-08-24T17:55:11.547Z,3
2022-08-24T18:00:11.541Z,4
2022-08-24T18:05:11.622Z,3
2022-08-24T18:10:11.624Z,3
2022-08-24T18:15:11.573Z,2
2022-08-24T18:20:11.584Z,4
2022-08-24T18:25:12.826Z,3
2022-08-24T18:30:11.587Z,3
2022-08-24T18:35:11.654Z,3
2022-08-24T18:40:11.021Z,4
2022-08-24T18:45:11.021Z,3
2022-08-24T18:50:12.063Z,3
2022-08-24T18:55:11.659Z,3
2022-08-24T19:00:11.749Z,3
2022-08-24T19:05:11.655Z,3
2022-08-24T19:10:11.806Z,4
2022-08-24T19:15:28.945Z,3
2022-08-24T19:20:11.708Z,4
2022-08-24T19:25:11.722Z,3
2022-08-24T19:30:11.744Z,4
2022-08-24T19:35:15.930Z,3
2022-08-24T19:40:11.197Z,4
2022-08-24T19:45:10.694Z,3
2022-08-24T19:50:11.832Z,4
2022-08-24T19:55:11.803Z,3
2022-08-24T20:00:11.805Z,4
2022-08-24T20:05:11.824Z,4
2022-08-24T20:10:12.361Z,3
2022-08-24T20:15:11.813Z,3
2022-08-24T20:20:11.840Z,3
2022-08-24T20:25:11.851Z,3
2022-08-24T20:30:12.105Z,3
2022-08-24T20:35:11.826Z,3
2022-08-24T20:40:11.289Z,3
2022-08-24T20:45:11.243Z,3
2022-08-24T20:50:11.856Z,3
2022-08-24T20:55:11.915Z,3
2022-08-24T21:00:11.972Z,4
2022-08-24T21:05:15.517Z,3
2022-08-24T21:10:11.965Z,4
2022-08-24T21:15:11.977Z,3
2022-08-24T21:20:12.065Z,3
2022-08-24T21:25:11.965Z,3
2022-08-24T21:30:11.953Z,4
2022-08-24T21:35:11.961Z,3
2022-08-24T21:40:11.443Z,4
2022-08-24T21:45:11.381Z,4
2022-08-24T21:50:12.002Z,3
2022-08-24T21:55:14.928Z,4
2022-08-24T22:00:12.095Z,4
2022-08-24T22:05:11.947Z,4
2022-08-24T22:10:11.950Z,4
2022-08-24T22:15:11.403Z,4
2022-08-24T22:20:15.103Z,4
2022-08-24T22:25:11.967Z,4
2022-08-24T22:30:11.956Z,4
2022-08-24T22:35:11.422Z,5
2022-08-24T22:40:12.541Z,5
2022-08-24T22:45:11.517Z,5
2022-08-24T22:50:12.146Z,4
2022-08-24T22:55:12.262Z,5
2022-08-24T23:00:12.159Z,5
2022-08-24T23:05:12.155Z,5
2022-08-24T23:10:12.180Z,5
2022-08-24T23:15:12.195Z,5
2022-08-24T23:20:12.196Z,5
2022-08-24T23:25:12.159Z,5
2022-08-24T23:30:12.249Z,6
2022-08-24T23:35:12.246Z,5
2022-08-24T23:40:11.670Z,6
2022-08-24T23:45:11.778Z,4
2022-08-24T23:50:12.349Z,5
2022-08-24T23:55:20.719Z,6
